Time;durP1;ratioP1;P1;durP2;ratioP2;P2;SDS_P1;SDS_P2;PMS_P1;PMS_P2;Temp;Humidity;BMP_temperature;BMP_pressure;BME280_temperature;BME280_humidity;BME280_pressure;Samples;Min_cycle;Max_cycle;Signal;HPM_P1;HPM_P2
2023/11/10 00:00:11;;;;;;;1.37;1.00;;;21.50;95.70;;;;;;5031617;28;20472;-60
2023/11/10 00:02:38;;;;;;;1.50;1.23;;;21.50;95.70;;;;;;5024336;28;20881;-62
2023/11/10 00:05:06;;;;;;;1.77;1.30;;;21.50;95.70;;;;;;5031375;28;20454;-57
2023/11/10 00:07:34;;;;;;;1.70;1.00;;;21.50;95.70;;;;;;5031343;28;20451;-61
2023/11/10 00:10:01;;;;;;;1.70;1.27;;;21.50;95.70;;;;;;5025631;28;20469;-62
2023/11/10 00:12:28;;;;;;;1.60;1.23;;;21.50;95.70;;;;;;5024998;28;21120;-62
2023/11/10 00:14:57;;;;;;;1.30;1.13;;;21.50;95.80;;;;;;5024862;28;20458;-62
2023/11/10 00:17:25;;;;;;;1.47;1.10;;;21.40;95.70;;;;;;5025293;28;20454;-59
2023/11/10 00:19:52;;;;;;;1.43;1.17;;;21.40;95.70;;;;;;5024851;28;21196;-60
2023/11/10 00:22:19;;;;;;;1.30;1.00;;;21.40;95.70;;;;;;5025565;28;21218;-60
2023/11/10 00:24:46;;;;;;;1.63;1.10;;;21.40;95.70;;;;;;5025529;28;20545;-61
2023/11/10 00:27:13;;;;;;;1.40;1.20;;;21.40;95.70;;;;;;5026320;28;20962;-60
2023/11/10 00:29:41;;;;;;;3.27;1.00;;;21.40;96.00;;;;;;5025330;28;20716;-61
2023/11/10 00:32:08;;;;;;;1.50;1.10;;;21.40;95.70;;;;;;5025071;28;21040;-62
2023/11/10 00:34:36;;;;;;;1.30;1.10;;;21.30;95.70;;;;;;5030787;28;20466;-61
2023/11/10 00:37:03;;;;;;;1.17;1.00;;;21.40;95.70;;;;;;5031471;28;20902;-59
2023/11/10 00:39:31;;;;;;;1.77;1.10;;;21.30;95.70;;;;;;5031347;28;20486;-61
2023/11/10 00:41:58;;;;;;;1.90;1.27;;;21.40;95.70;;;;;;5031746;28;20473;-61
2023/11/10 00:44:24;;;;;;;1.40;0.90;;;21.30;95.70;;;;;;5030328;28;20999;-60
2023/11/10 00:46:51;;;;;;;1.23;1.00;;;21.30;95.70;;;;;;5032710;28;20492;-62
2023/11/10 00:49:18;;;;;;;1.90;1.00;;;21.30;95.70;;;;;;5031816;28;20740;-59
2023/11/10 00:51:47;;;;;;;2.30;1.30;;;21.30;95.70;;;;;;5033216;28;20481;-59
2023/11/10 00:54:15;;;;;;;1.57;1.17;;;21.30;95.70;;;;;;5031155;28;20850;-61
2023/11/10 00:56:42;;;;;;;1.73;1.13;;;21.30;95.70;;;;;;5027688;28;20485;-62
2023/11/10 00:59:10;;;;;;;1.67;1.20;;;21.30;95.80;;;;;;5028866;28;20462;-61
2023/11/10 01:01:37;;;;;;;1.87;1.47;;;21.30;96.10;;;;;;5029717;28;20470;-61
2023/11/10 01:04:05;;;;;;;1.40;1.17;;;21.20;96.00;;;;;;5032308;28;20943;-60
2023/11/10 01:06:31;;;;;;;2.17;1.00;;;21.20;95.70;;;;;;5032796;28;20732;-61
2023/11/10 01:09:00;;;;;;;1.97;1.30;;;21.20;95.80;;;;;;5031950;28;20551;-60
2023/11/10 01:11:27;;;;;;;1.33;1.00;;;21.20;95.80;;;;;;5027669;28;20997;-61
2023/11/10 01:13:54;;;;;;;1.33;1.13;;;21.20;95.80;;;;;;5031038;28;20503;-61
2023/11/10 01:16:21;;;;;;;1.33;1.17;;;21.20;95.80;;;;;;5026953;28;20461;-62
2023/11/10 01:18:48;;;;;;;1.27;1.00;;;21.20;95.80;;;;;;5028985;28;20489;-62
2023/11/10 01:21:15;;;;;;;1.60;1.00;;;21.20;95.80;;;;;;5029607;28;20460;-61
2023/11/10 01:23:42;;;;;;;1.70;1.30;;;21.20;95.80;;;;;;5031232;28;21020;-61
2023/11/10 01:26:11;;;;;;;1.70;1.55;;;21.20;95.80;;;;;;5031579;28;20457;-61
2023/11/10 01:28:38;;;;;;;1.40;1.30;;;21.20;95.80;;;;;;5025270;28;20198;-61
2023/11/10 01:31:05;;;;;;;1.50;1.30;;;21.20;95.80;;;;;;5030275;28;20457;-59
2023/11/10 01:33:32;;;;;;;1.40;1.10;;;21.20;95.80;;;;;;5031724;28;20194;-62
2023/11/10 01:35:58;;;;;;;1.33;1.20;;;21.10;95.70;;;;;;5028554;28;20720;-61
2023/11/10 01:38:25;;;;;;;1.40;1.30;;;21.10;96.10;;;;;;5028865;28;20195;-61
2023/11/10 01:40:52;;;;;;;1.57;1.03;;;21.10;95.70;;;;;;5029719;28;20548;-61
2023/11/10 01:43:20;;;;;;;1.25;1.00;;;21.10;95.80;;;;;;5028982;28;20473;-61
2023/11/10 01:45:47;;;;;;;1.30;0.90;;;21.10;95.70;;;;;;5029627;28;20207;-60
2023/11/10 01:48:14;;;;;;;1.30;1.00;;;21.10;95.70;;;;;;5031619;28;20462;-59
2023/11/10 01:50:43;;;;;;;1.57;1.00;;;21.10;95.80;;;;;;5022680;28;20203;-61
2023/11/10 01:53:11;;;;;;;1.33;0.90;;;21.10;95.80;;;;;;5028809;28;20485;-61
2023/11/10 01:55:39;;;;;;;1.17;0.90;;;21.00;95.80;;;;;;5025136;28;20462;-60
2023/11/10 01:58:07;;;;;;;1.55;1.20;;;21.10;95.80;;;;;;5030943;28;20187;-62
2023/11/10 02:00:37;;;;;;;1.13;0.90;;;21.10;95.80;;;;;;5032920;28;20206;-60
2023/11/10 02:03:04;;;;;;;1.20;1.00;;;21.00;95.80;;;;;;5028250;28;20195;-62
2023/11/10 02:05:31;;;;;;;1.30;1.00;;;21.00;95.70;;;;;;5026777;28;20484;-61
2023/11/10 02:07:58;;;;;;;1.10;0.80;;;21.00;95.80;;;;;;5028845;28;20481;-61
2023/11/10 02:10:25;;;;;;;1.60;1.20;;;21.10;95.80;;;;;;5025251;28;20199;-61
2023/11/10 02:12:57;;;;;;;1.85;1.20;;;21.00;95.80;;;;;;5024988;28;20635;-59
2023/11/10 02:15:25;;;;;;;1.50;1.27;;;21.00;95.90;;;;;;5029172;28;20403;-59
2023/11/10 02:17:53;;;;;;;1.30;1.10;;;21.00;95.80;;;;;;5025327;28;20195;-60
2023/11/10 02:20:20;;;;;;;1.67;1.13;;;21.00;95.80;;;;;;5029228;28;20550;-60
2023/11/10 02:22:48;;;;;;;1.27;1.05;;;21.00;95.80;;;;;;5030441;28;20466;-61
2023/11/10 02:25:16;;;;;;;1.52;1.10;;;21.00;95.80;;;;;;5026251;28;20683;-62
2023/11/10 02:27:44;;;;;;;1.27;1.10;;;21.00;95.90;;;;;;5022842;28;20532;-62
2023/11/10 02:30:12;;;;;;;2.10;1.23;;;21.00;95.80;;;;;;5023310;28;20194;-60
2023/11/10 02:32:39;;;;;;;1.10;0.90;;;21.00;95.80;;;;;;5020705;28;20688;-60
2023/11/10 02:35:08;;;;;;;1.60;0.90;;;21.00;95.80;;;;;;5021168;28;20876;-61
2023/11/10 02:37:35;;;;;;;1.98;1.05;;;21.00;95.80;;;;;;5022901;28;20195;-60
2023/11/10 02:40:05;;;;;;;1.27;1.00;;;21.00;95.80;;;;;;5025344;28;20202;-61
2023/11/10 02:42:33;;;;;;;1.70;1.00;;;21.00;95.80;;;;;;5027153;28;20554;-61
2023/11/10 02:45:00;;;;;;;1.50;1.23;;;21.00;95.90;;;;;;5026393;28;20200;-61
2023/11/10 02:47:27;;;;;;;1.15;0.85;;;21.00;95.80;;;;;;5028399;28;20195;-60
2023/11/10 02:49:53;;;;;;;0.90;0.80;;;21.00;95.80;;;;;;5028912;28;20196;-61
2023/11/10 02:52:20;;;;;;;1.08;0.90;;;20.90;95.80;;;;;;5023770;28;20215;-60
2023/11/10 02:54:47;;;;;;;1.00;0.90;;;20.90;95.80;;;;;;5029742;28;20188;-60
2023/11/10 02:57:13;;;;;;;1.30;0.98;;;20.90;95.80;;;;;;5032004;28;21092;-61
2023/11/10 02:59:41;;;;;;;1.20;0.82;;;20.90;95.80;;;;;;5027658;28;20204;-61
2023/11/10 03:02:08;;;;;;;1.95;1.02;;;20.90;95.80;;;;;;5029570;28;20208;-60
2023/11/10 03:04:37;;;;;;;1.00;0.80;;;20.90;95.80;;;;;;5030099;28;20241;-59
2023/11/10 03:07:04;;;;;;;1.05;0.88;;;20.90;95.80;;;;;;5026073;28;20558;-61
2023/11/10 03:09:30;;;;;;;1.42;0.90;;;20.90;95.80;;;;;;5028038;28;20197;-60
2023/11/10 03:11:57;;;;;;;1.10;1.00;;;20.90;95.80;;;;;;5028714;28;20345;-61
2023/11/10 03:14:24;;;;;;;1.60;0.90;;;20.90;95.80;;;;;;5027796;28;20579;-62
2023/11/10 03:16:52;;;;;;;1.30;0.93;;;20.90;95.80;;;;;;5026688;28;20200;-61
2023/11/10 03:19:19;;;;;;;1.52;1.42;;;20.90;95.80;;;;;;5025319;28;20358;-60
2023/11/10 03:21:46;;;;;;;1.20;0.90;;;20.90;95.80;;;;;;5024977;28;20214;-62
2023/11/10 03:24:12;;;;;;;1.50;0.90;;;20.90;95.80;;;;;;5027930;28;20196;-60
2023/11/10 03:26:40;;;;;;;2.30;0.90;;;20.80;95.80;;;;;;5029854;28;21354;-61
2023/11/10 03:29:07;;;;;;;1.30;0.90;;;20.90;95.90;;;;;;5026771;28;20229;-61
2023/11/10 03:31:34;;;;;;;1.20;0.90;;;20.90;95.90;;;;;;5027448;28;21498;-59
2023/11/10 03:34:02;;;;;;;1.00;0.70;;;20.80;95.90;;;;;;5028283;28;20280;-62
2023/11/10 03:36:29;;;;;;;1.40;1.00;;;20.80;95.90;;;;;;5028184;28;20256;-61
2023/11/10 03:38:55;;;;;;;1.42;1.13;;;20.80;95.90;;;;;;5032508;28;20281;-59
2023/11/10 03:41:22;;;;;;;1.67;0.90;;;20.80;95.90;;;;;;5029077;28;20202;-60
2023/11/10 03:43:49;;;;;;;1.45;1.13;;;20.80;95.80;;;;;;5026974;28;20212;-61
2023/11/10 03:46:15;;;;;;;2.70;1.00;;;20.80;95.80;;;;;;5029168;28;20272;-61
2023/11/10 03:48:42;;;;;;;1.27;0.90;;;20.80;95.90;;;;;;5028165;28;20540;-61
2023/11/10 03:51:12;;;;;;;1.30;1.02;;;20.80;95.80;;;;;;5030170;28;20257;-61
2023/11/10 03:53:41;;;;;;;1.63;1.15;;;20.80;95.90;;;;;;5029879;28;20225;-60
2023/11/10 03:56:08;;;;;;;1.20;1.00;;;20.80;95.90;;;;;;5024652;28;20750;-62
2023/11/10 03:58:35;;;;;;;1.30;1.08;;;20.80;95.90;;;;;;5027921;28;20599;-61
2023/11/10 04:01:02;;;;;;;1.17;0.93;;;20.80;95.80;;;;;;5025425;28;20191;-61
2023/11/10 04:03:28;;;;;;;1.30;0.90;;;20.80;95.90;;;;;;5028395;28;20558;-61
2023/11/10 04:05:55;;;;;;;1.10;0.85;;;20.80;95.80;;;;;;5024004;28;20203;-61
2023/11/10 04:08:23;;;;;;;1.60;1.17;;;20.80;95.90;;;;;;5026893;28;20191;-62
2023/11/10 04:10:50;;;;;;;1.20;1.00;;;20.80;95.90;;;;;;5033273;28;20203;-60
2023/11/10 04:13:17;;;;;;;1.10;0.80;;;20.80;95.90;;;;;;5036429;28;20472;-61
2023/11/10 04:15:43;;;;;;;1.40;1.00;;;20.80;95.90;;;;;;5033754;28;20187;-58
2023/11/10 04:18:10;;;;;;;1.10;0.80;;;20.70;95.80;;;;;;5027070;28;20195;-61
2023/11/10 04:20:37;;;;;;;1.30;0.93;;;20.70;95.90;;;;;;5033895;28;20187;-60
2023/11/10 04:23:03;;;;;;;1.50;1.00;;;20.70;95.80;;;;;;5036904;28;20938;-60
2023/11/10 04:25:33;;;;;;;1.20;0.77;;;20.70;95.90;;;;;;5035754;28;20196;-61
2023/11/10 04:28:00;;;;;;;1.88;0.88;;;20.70;95.80;;;;;;5038551;28;20187;-61
2023/11/10 04:30:28;;;;;;;1.10;0.85;;;20.70;95.80;;;;;;5032478;28;20196;-61
2023/11/10 04:32:55;;;;;;;6.03;0.90;;;20.70;95.80;;;;;;5033578;28;20538;-58
2023/11/10 04:35:22;;;;;;;1.10;0.80;;;20.70;95.70;;;;;;5030690;28;20458;-60
2023/11/10 04:37:50;;;;;;;1.57;1.10;;;20.70;95.90;;;;;;5034974;28;20555;-61
2023/11/10 04:40:18;;;;;;;1.00;0.70;;;20.70;95.80;;;;;;5032872;28;20445;-61
2023/11/10 04:42:46;;;;;;;1.10;0.90;;;20.70;95.90;;;;;;5034831;28;20207;-61
2023/11/10 04:45:12;;;;;;;1.15;0.90;;;20.70;95.90;;;;;;5030949;28;20187;-61
2023/11/10 04:47:39;;;;;;;1.30;1.00;;;20.70;95.90;;;;;;5015841;28;20564;-61
2023/11/10 04:50:07;;;;;;;1.00;0.90;;;20.70;95.90;;;;;;5032408;28;20198;-61
2023/11/10 04:52:34;;;;;;;2.08;0.98;;;20.70;95.90;;;;;;5028865;28;20222;-62
2023/11/10 04:55:01;;;;;;;2.60;1.27;;;20.70;95.90;;;;;;5031148;28;20206;-62
2023/11/10 04:57:28;;;;;;;0.90;0.73;;;20.70;95.90;;;;;;5031989;28;20462;-61
2023/11/10 04:59:56;;;;;;;1.02;0.82;;;20.70;95.90;;;;;;5031842;28;20192;-62
2023/11/10 05:02:23;;;;;;;1.10;0.80;;;20.70;95.90;;;;;;5029209;28;20649;-61
2023/11/10 05:04:51;;;;;;;1.10;0.73;;;20.70;95.90;;;;;;5026936;28;21086;-60
2023/11/10 05:07:18;;;;;;;1.10;0.83;;;20.70;95.90;;;;;;5025860;28;20192;-60
2023/11/10 05:09:45;;;;;;;1.00;0.88;;;20.70;95.90;;;;;;5027645;28;20461;-61
2023/11/10 05:12:12;;;;;;;1.20;0.93;;;20.70;95.90;;;;;;5028135;28;20196;-61
2023/11/10 05:14:39;;;;;;;1.50;0.90;;;20.70;95.90;;;;;;5025411;28;20192;-58
2023/11/10 05:17:08;;;;;;;1.00;0.70;;;20.70;95.90;;;;;;5030048;28;20308;-61
2023/11/10 05:19:35;;;;;;;1.10;0.85;;;20.70;95.90;;;;;;5027330;28;20201;-61
2023/11/10 05:22:01;;;;;;;1.10;0.90;;;20.70;95.90;;;;;;5028430;28;20200;-59
2023/11/10 05:24:29;;;;;;;1.10;0.90;;;20.60;95.90;;;;;;5027401;28;20211;-60
2023/11/10 05:26:56;;;;;;;1.00;0.70;;;20.60;95.80;;;;;;5028924;28;20489;-61
2023/11/10 05:29:23;;;;;;;1.00;0.80;;;20.70;95.90;;;;;;5025268;28;20211;-60
2023/11/10 05:31:50;;;;;;;1.20;0.90;;;20.60;95.70;;;;;;5026794;28;20235;-56
2023/11/10 05:34:18;;;;;;;1.23;0.90;;;20.70;95.80;;;;;;5028368;28;20219;-60
2023/11/10 05:36:44;;;;;;;1.00;0.70;;;20.60;95.80;;;;;;5029144;28;20202;-58
2023/11/10 05:39:11;;;;;;;1.20;0.97;;;20.60;95.80;;;;;;5027220;28;20462;-61
2023/11/10 05:41:40;;;;;;;1.10;0.90;;;20.60;95.80;;;;;;5024702;28;20463;-61
2023/11/10 05:44:07;;;;;;;1.10;0.85;;;20.60;95.90;;;;;;5027121;28;20772;-60
2023/11/10 05:46:34;;;;;;;1.15;0.82;;;20.60;95.90;;;;;;5026716;28;20606;-62
2023/11/10 05:49:00;;;;;;;1.55;1.20;;;20.60;95.80;;;;;;5028617;28;20203;-59
2023/11/10 05:51:29;;;;;;;1.02;0.80;;;20.60;96.20;;;;;;5022986;28;20203;-62
2023/11/10 05:53:55;;;;;;;1.00;0.80;;;20.60;95.90;;;;;;5027618;28;20623;-61
2023/11/10 05:56:24;;;;;;;0.90;0.70;;;20.60;95.90;;;;;;5023235;28;20192;-61
2023/11/10 05:58:51;;;;;;;1.00;0.80;;;20.60;96.00;;;;;;5024110;28;20330;-62
2023/11/10 06:01:23;;;;;;;1.55;0.80;;;20.60;95.90;;;;;;5024527;28;20243;-61
2023/11/10 06:03:50;;;;;;;1.00;0.80;;;20.60;95.90;;;;;;5025928;28;20199;-62
2023/11/10 06:06:17;;;;;;;1.00;0.70;;;20.60;95.90;;;;;;5024860;28;20467;-61
2023/11/10 06:08:45;;;;;;;1.63;1.00;;;20.60;95.90;;;;;;5025855;28;20798;-61
2023/11/10 06:11:20;;;;;;;1.30;0.85;;;20.60;95.90;;;;;;5026427;28;20203;-60
2023/11/10 06:13:47;;;;;;;1.60;0.80;;;20.60;95.90;;;;;;5023154;28;20902;-61
2023/11/10 06:16:14;;;;;;;1.10;0.90;;;20.60;95.90;;;;;;5021313;28;20655;-58
2023/11/10 06:18:41;;;;;;;1.20;1.02;;;20.60;95.90;;;;;;5025274;28;20196;-61
2023/11/10 06:21:08;;;;;;;1.20;0.80;;;20.60;95.90;;;;;;5021016;28;20337;-61
2023/11/10 06:23:36;;;;;;;1.10;0.90;;;20.60;95.90;;;;;;5024988;28;20203;-57
2023/11/10 06:26:05;;;;;;;1.27;0.80;;;20.60;95.90;;;;;;5025525;28;20587;-61
2023/11/10 06:28:32;;;;;;;1.05;0.80;;;20.50;96.10;;;;;;5025149;28;20726;-58
2023/11/10 06:30:59;;;;;;;1.30;1.02;;;20.50;95.80;;;;;;5032983;28;20199;-60
2023/11/10 06:33:26;;;;;;;0.90;0.70;;;20.60;95.90;;;;;;5033209;28;20529;-60
2023/11/10 06:35:53;;;;;;;0.98;0.80;;;20.50;96.20;;;;;;5025015;28;20674;-59
2023/11/10 06:38:19;;;;;;;1.00;0.77;;;20.50;95.80;;;;;;5025538;28;20206;-59
2023/11/10 06:40:46;;;;;;;1.10;0.80;;;20.50;95.90;;;;;;5028633;28;20195;-58
2023/11/10 06:43:14;;;;;;;1.00;0.80;;;20.50;95.80;;;;;;5028502;28;20202;-60
2023/11/10 06:45:41;;;;;;;1.10;0.80;;;20.50;95.80;;;;;;5032858;28;20202;-59
2023/11/10 06:48:08;;;;;;;1.20;0.88;;;20.50;95.80;;;;;;5026591;28;20326;-58
2023/11/10 06:50:35;;;;;;;1.00;0.80;;;20.50;95.80;;;;;;5028091;28;20851;-59
2023/11/10 06:53:02;;;;;;;1.00;0.83;;;20.50;95.80;;;;;;5029972;28;20214;-60
2023/11/10 06:55:29;;;;;;;1.10;0.82;;;20.50;95.80;;;;;;5027913;28;20463;-61
2023/11/10 06:57:55;;;;;;;1.25;0.90;;;20.50;95.80;;;;;;5028078;28;20183;-58
2023/11/10 07:00:26;;;;;;;1.30;1.10;;;20.40;95.80;;;;;;5033188;28;20205;-62
2023/11/10 07:02:56;;;;;;;1.00;0.80;;;20.50;95.80;;;;;;5028844;28;20552;-61
2023/11/10 07:05:25;;;;;;;0.95;0.70;;;20.50;95.80;;;;;;5029584;28;20292;-58
2023/11/10 07:07:52;;;;;;;1.13;0.90;;;20.50;95.80;;;;;;5027399;28;20552;-59
2023/11/10 07:10:19;;;;;;;1.00;0.70;;;20.50;95.80;;;;;;5025987;28;20674;-61
2023/11/10 07:12:46;;;;;;;1.00;0.68;;;20.40;95.70;;;;;;5032372;28;21204;-60
2023/11/10 07:15:12;;;;;;;1.20;0.73;;;20.40;95.70;;;;;;5031082;28;20202;-59
2023/11/10 07:17:42;;;;;;;1.20;0.80;;;20.40;95.80;;;;;;5032144;28;20201;-61
2023/11/10 07:20:11;;;;;;;1.00;0.80;;;20.40;95.70;;;;;;5029826;28;20188;-59
2023/11/10 07:22:38;;;;;;;1.27;0.80;;;20.40;95.70;;;;;;5025344;28;20215;-59
2023/11/10 07:25:06;;;;;;;1.00;0.80;;;20.40;95.70;;;;;;5022756;28;20655;-59
2023/11/10 07:27:33;;;;;;;1.53;0.83;;;20.40;95.80;;;;;;5022067;28;20278;-62
2023/11/10 07:29:59;;;;;;;1.77;1.00;;;20.40;95.80;;;;;;5021841;28;20462;-62
2023/11/10 07:32:27;;;;;;;0.98;0.70;;;20.40;95.90;;;;;;5022757;28;20202;-61
2023/11/10 07:34:55;;;;;;;1.30;0.80;;;20.40;96.00;;;;;;5025719;28;20220;-59
2023/11/10 07:37:22;;;;;;;1.20;1.00;;;20.40;96.00;;;;;;5024967;28;20188;-62
2023/11/10 07:39:49;;;;;;;0.90;0.70;;;20.50;96.00;;;;;;5023607;28;20192;-62
2023/11/10 07:42:16;;;;;;;1.23;0.90;;;20.50;96.00;;;;;;5025620;28;20266;-60
2023/11/10 07:44:43;;;;;;;1.30;1.00;;;20.50;96.00;;;;;;5023523;28;20199;-61
2023/11/10 07:47:10;;;;;;;1.45;0.95;;;20.50;96.00;;;;;;5024933;28;20294;-62
2023/11/10 07:49:37;;;;;;;0.95;0.70;;;20.50;96.00;;;;;;5023223;28;20212;-61
2023/11/10 07:52:06;;;;;;;1.90;0.80;;;20.50;96.00;;;;;;5025915;28;20203;-60
2023/11/10 07:54:33;;;;;;;1.20;0.80;;;20.60;96.10;;;;;;5027414;28;20281;-62
2023/11/10 07:57:00;;;;;;;1.30;0.77;;;20.60;96.10;;;;;;5030334;28;20294;-62
2023/11/10 07:59:27;;;;;;;2.30;0.80;;;20.60;96.10;;;;;;5025112;28;20280;-61
2023/11/10 08:01:54;;;;;;;1.05;0.70;;;20.60;96.10;;;;;;5023217;28;20469;-62
2023/11/10 08:04:21;;;;;;;1.63;0.80;;;20.60;96.10;;;;;;5030914;28;20780;-62
2023/11/10 08:06:48;;;;;;;1.38;0.90;;;20.60;96.10;;;;;;5028497;28;20979;-63
2023/11/10 08:09:16;;;;;;;1.00;0.82;;;20.70;96.50;;;;;;5029156;28;20195;-63
2023/11/10 08:11:43;;;;;;;1.87;0.80;;;20.70;96.20;;;;;;5027117;28;20206;-63
2023/11/10 08:14:10;;;;;;;1.10;0.63;;;20.70;96.10;;;;;;5027185;28;21253;-62
2023/11/10 08:16:37;;;;;;;0.90;0.60;;;20.70;96.10;;;;;;5031078;28;20210;-63
2023/11/10 08:19:04;;;;;;;1.57;0.80;;;20.70;96.10;;;;;;5024465;28;20932;-62
2023/11/10 08:21:31;;;;;;;0.90;0.70;;;20.70;96.10;;;;;;5025191;28;20474;-63
2023/11/10 08:23:58;;;;;;;1.10;0.77;;;20.80;96.10;;;;;;5022534;28;22006;-61
2023/11/10 08:26:26;;;;;;;1.30;0.60;;;20.80;96.10;;;;;;5026424;28;20207;-62
2023/11/10 08:28:53;;;;;;;1.30;0.90;;;20.80;96.00;;;;;;5026524;28;20201;-61
2023/11/10 08:31:20;;;;;;;1.00;0.80;;;20.80;96.00;;;;;;5025737;28;20849;-61
2023/11/10 08:33:47;;;;;;;1.27;0.90;;;20.80;96.00;;;;;;5029991;28;20573;-63
2023/11/10 08:36:14;;;;;;;1.10;0.80;;;20.80;96.00;;;;;;5025448;28;21045;-62
2023/11/10 08:38:41;;;;;;;1.00;0.70;;;20.90;96.00;;;;;;5024810;28;20462;-61
2023/11/10 08:41:11;;;;;;;1.85;0.80;;;20.90;96.00;;;;;;5025887;28;20759;-62
2023/11/10 08:43:40;;;;;;;1.75;0.93;;;20.90;96.00;;;;;;5024315;28;20207;-62
2023/11/10 08:46:07;;;;;;;1.40;0.80;;;20.90;96.00;;;;;;5019239;28;20282;-61
2023/11/10 08:48:34;;;;;;;2.40;1.07;;;20.90;96.00;;;;;;5023744;28;20466;-62
2023/11/10 08:51:02;;;;;;;1.10;0.90;;;20.90;96.00;;;;;;5026731;28;20464;-62
2023/11/10 08:53:29;;;;;;;2.13;1.67;;;20.90;96.00;;;;;;5024856;28;20492;-61
2023/11/10 08:55:57;;;;;;;1.00;0.80;;;21.00;96.00;;;;;;5020197;28;20512;-61
2023/11/10 08:58:24;;;;;;;1.50;0.70;;;20.90;96.00;;;;;;5021871;28;20468;-61
2023/11/10 09:00:52;;;;;;;1.33;0.70;;;21.00;96.00;;;;;;5020501;28;20537;-61
2023/11/10 09:03:19;;;;;;;0.90;0.70;;;21.00;96.00;;;;;;5021253;28;20543;-62
2023/11/10 09:05:46;;;;;;;1.07;0.70;;;21.00;96.00;;;;;;5019807;28;20502;-63
2023/11/10 09:08:13;;;;;;;1.20;0.77;;;21.00;96.00;;;;;;5023868;28;20474;-60
2023/11/10 09:10:40;;;;;;;1.20;0.90;;;21.00;96.30;;;;;;5020554;28;20455;-62
2023/11/10 09:13:07;;;;;;;1.20;0.70;;;21.00;96.00;;;;;;5025849;28;20465;-62
2023/11/10 09:15:35;;;;;;;1.70;0.87;;;21.00;95.90;;;;;;5016737;28;20561;-61
2023/11/10 09:18:03;;;;;;;0.93;0.70;;;21.00;95.90;;;;;;5031004;28;20462;-62
2023/11/10 09:20:30;;;;;;;1.47;0.70;;;21.00;96.00;;;;;;5022055;28;20466;-62
2023/11/10 09:22:59;;;;;;;1.50;0.80;;;21.00;95.90;;;;;;5022650;28;20466;-62
2023/11/10 09:25:25;;;;;;;1.27;0.93;;;21.00;95.90;;;;;;5023368;28;20456;-62
2023/11/10 09:27:55;;;;;;;1.60;1.00;;;21.00;96.00;;;;;;5023603;28;20454;-63
2023/11/10 09:30:24;;;;;;;1.40;0.90;;;21.00;95.90;;;;;;5022134;28;20561;-61
2023/11/10 09:32:52;;;;;;;1.60;0.77;;;21.00;95.90;;;;;;5027731;28;20458;-62
2023/11/10 09:35:20;;;;;;;15.03;1.20;;;21.10;95.90;;;;;;5021984;28;20575;-63
2023/11/10 09:37:47;;;;;;;9.10;1.20;;;21.00;95.50;;;;;;5022359;28;20450;-62
2023/11/10 09:40:15;;;;;;;2.20;0.80;;;21.00;95.50;;;;;;5025703;28;20455;-61
2023/11/10 09:42:42;;;;;;;10.43;0.93;;;21.00;95.30;;;;;;5019537;28;20483;-59
2023/11/10 09:45:12;;;;;;;3.67;0.90;;;21.00;95.50;;;;;;5024359;28;20473;-62
2023/11/10 09:47:41;;;;;;;1.17;0.80;;;21.00;95.60;;;;;;5024349;28;20474;-63
2023/11/10 09:50:09;;;;;;;1.47;0.93;;;21.10;95.90;;;;;;5024336;28;20461;-61
2023/11/10 09:52:38;;;;;;;1.00;0.80;;;21.10;96.00;;;;;;5024655;28;20863;-61
2023/11/10 09:55:06;;;;;;;4.17;0.80;;;21.10;96.00;;;;;;5017905;28;20476;-61
2023/11/10 09:57:33;;;;;;;1.30;1.03;;;21.10;96.10;;;;;;5029391;28;20810;-59
2023/11/10 10:00:01;;;;;;;1.53;0.80;;;21.20;96.20;;;;;;5028102;28;20453;-62
2023/11/10 10:02:28;;;;;;;1.10;0.90;;;21.20;96.40;;;;;;5027824;28;21092;-62
2023/11/10 10:04:55;;;;;;;1.30;0.80;;;21.20;96.30;;;;;;5027749;28;20466;-62
2023/11/10 10:07:22;;;;;;;1.20;0.80;;;21.30;96.40;;;;;;5024970;28;20461;-65
2023/11/10 10:09:50;;;;;;;2.90;0.90;;;21.30;96.40;;;;;;5022684;28;21204;-59
2023/11/10 10:12:17;;;;;;;1.97;0.90;;;21.30;96.40;;;;;;5023296;28;20459;-58
2023/11/10 10:14:53;;;;;;;1.00;0.70;;;21.30;96.40;;;;;;5023097;28;20506;-55
2023/11/10 10:17:20;;;;;;;1.67;1.07;;;21.40;96.50;;;;;;5023056;28;20950;-58
2023/11/10 10:19:48;;;;;;;2.00;0.90;;;21.40;96.50;;;;;;5023547;28;20882;-58
2023/11/10 10:22:23;;;;;;;1.70;0.93;;;21.40;96.50;;;;;;5023930;28;20464;-57
2023/11/10 10:24:51;;;;;;;2.40;0.90;;;21.40;96.50;;;;;;5020752;28;20472;-59
2023/11/10 10:27:18;;;;;;;1.60;0.77;;;21.40;96.50;;;;;;5024637;28;20807;-60
2023/11/10 10:29:45;;;;;;;1.43;0.80;;;21.50;96.60;;;;;;5017577;28;20462;-58
2023/11/10 10:32:12;;;;;;;2.17;0.90;;;21.50;96.50;;;;;;5024116;28;20461;-56
2023/11/10 10:34:41;;;;;;;1.00;0.70;;;21.50;96.50;;;;;;5023423;28;20853;-61
2023/11/10 10:37:10;;;;;;;1.63;1.10;;;21.50;96.40;;;;;;5022078;28;20473;-61
2023/11/10 10:39:40;;;;;;;2.03;0.83;;;21.60;96.50;;;;;;5021579;28;20469;-62
2023/11/10 10:42:14;;;;;;;1.30;0.90;;;21.60;96.40;;;;;;5024227;28;21080;-62
2023/11/10 10:44:43;;;;;;;3.57;0.90;;;21.60;96.40;;;;;;5019605;28;20466;-59
2023/11/10 10:47:11;;;;;;;1.47;1.03;;;21.60;96.50;;;;;;5022445;28;20466;-62
2023/11/10 10:49:39;;;;;;;1.30;0.90;;;21.60;96.50;;;;;;5026250;28;20969;-64
2023/11/10 10:52:07;;;;;;;4.10;1.17;;;21.60;96.40;;;;;;5023364;28;20455;-60
2023/11/10 10:54:36;;;;;;;5.80;1.80;;;21.60;96.40;;;;;;5019498;28;20497;-58
2023/11/10 10:57:05;;;;;;;17.43;1.80;;;21.70;96.40;;;;;;5024427;28;20458;-64
2023/11/10 10:59:36;;;;;;;11.40;2.23;;;21.70;96.40;;;;;;5018464;28;20809;-59
2023/11/10 11:02:04;;;;;;;8.23;1.40;;;21.70;96.50;;;;;;5015396;28;21048;-61
2023/11/10 11:04:44;;;;;;;6.63;1.30;;;21.70;96.40;;;;;;5023837;28;20533;-61
2023/11/10 11:07:30;;;;;;;16.17;1.77;;;21.80;96.40;;;;;;5022375;28;20485;-60
2023/11/10 11:10:20;;;;;;;2.80;1.27;;;21.80;96.40;;;;;;5019431;28;20477;-60
2023/11/10 11:13:29;;;;;;;4.23;1.50;;;21.80;96.30;;;;;;5015270;28;20462;-60
2023/11/10 11:16:22;;;;;;;2.77;1.07;;;21.80;96.30;;;;;;5020290;28;20477;-61
2023/11/10 11:19:12;;;;;;;3.97;1.30;;;21.80;96.30;;;;;;5022914;28;20454;-61
2023/11/10 11:21:40;;;;;;;5.53;1.00;;;21.80;96.20;;;;;;5025920;28;20469;-59
2023/11/10 11:24:07;;;;;;;1.80;0.90;;;21.80;96.20;;;;;;5025724;28;20465;-62
2023/11/10 11:26:34;;;;;;;4.03;2.20;;;21.80;96.20;;;;;;5025666;28;20461;-62
2023/11/10 11:29:05;;;;;;;6.43;1.33;;;21.90;96.20;;;;;;5024081;28;20464;-62
2023/11/10 11:31:45;;;;;;;5.30;2.53;;;21.90;96.20;;;;;;5022586;28;20462;-61
2023/11/10 11:34:14;;;;;;;3.00;1.17;;;21.90;96.10;;;;;;5027617;28;20452;-63
2023/11/10 11:36:44;;;;;;;2.23;0.93;;;21.90;96.10;;;;;;5026455;28;20852;-63
2023/11/10 11:39:15;;;;;;;2.50;1.17;;;21.90;96.40;;;;;;5028819;28;20485;-63
2023/11/10 11:41:46;;;;;;;3.50;1.03;;;21.90;96.10;;;;;;5028101;28;20516;-63
2023/11/10 11:44:13;;;;;;;3.20;1.20;;;21.90;96.20;;;;;;5027724;28;20784;-62
2023/11/10 11:46:42;;;;;;;4.50;1.00;;;22.00;96.20;;;;;;5023844;28;20462;-57
2023/11/10 11:49:10;;;;;;;3.30;1.00;;;22.00;96.50;;;;;;5023618;28;20446;-59
2023/11/10 11:51:37;;;;;;;2.73;1.10;;;22.00;96.10;;;;;;5019285;28;20470;-59
2023/11/10 11:54:04;;;;;;;1.70;1.30;;;22.00;96.00;;;;;;5020188;28;20458;-62
2023/11/10 11:56:32;;;;;;;1.63;1.10;;;22.00;96.00;;;;;;5027472;28;21441;-61
2023/11/10 11:58:59;;;;;;;4.77;1.10;;;22.00;95.90;;;;;;5024021;28;20489;-61
2023/11/10 12:01:25;;;;;;;2.70;1.00;;;22.10;96.00;;;;;;5025500;28;21029;-58
2023/11/10 12:03:54;;;;;;;3.90;1.10;;;22.00;95.90;;;;;;5028441;28;20458;-61
2023/11/10 12:06:20;;;;;;;2.70;1.40;;;22.10;96.30;;;;;;5026820;28;20470;-59
2023/11/10 12:08:48;;;;;;;1.90;1.10;;;22.10;95.90;;;;;;5027041;28;21228;-59
2023/11/10 12:11:15;;;;;;;2.00;0.90;;;22.10;95.80;;;;;;5027041;28;20487;-59
2023/11/10 12:13:42;;;;;;;1.40;1.00;;;22.10;95.80;;;;;;5027222;28;20858;-58
2023/11/10 12:16:10;;;;;;;1.60;1.10;;;22.10;95.90;;;;;;5026862;28;20489;-60
2023/11/10 12:18:37;;;;;;;1.50;0.80;;;22.10;95.70;;;;;;5026756;28;20768;-61
2023/11/10 12:21:07;;;;;;;1.43;0.80;;;22.10;95.80;;;;;;5028643;28;20556;-62
2023/11/10 12:23:34;;;;;;;2.23;0.90;;;22.10;95.70;;;;;;5027061;28;20499;-59
2023/11/10 12:26:00;;;;;;;2.03;1.20;;;22.10;95.80;;;;;;5023938;28;20993;-59
2023/11/10 12:28:27;;;;;;;4.20;1.40;;;22.20;95.70;;;;;;5027083;28;20462;-63
2023/11/10 12:30:55;;;;;;;5.33;1.00;;;22.20;95.80;;;;;;5027163;28;20462;-62
2023/11/10 12:33:23;;;;;;;2.10;0.90;;;22.20;95.70;;;;;;5028522;28;20473;-60
2023/11/10 12:35:50;;;;;;;2.30;1.10;;;22.20;95.70;;;;;;5025701;28;20521;-63
2023/11/10 12:38:18;;;;;;;2.53;1.17;;;22.20;95.70;;;;;;5026894;28;20470;-60
2023/11/10 12:40:48;;;;;;;1.50;0.90;;;22.20;95.70;;;;;;5026668;28;20453;-59
2023/11/10 12:43:15;;;;;;;2.50;1.07;;;22.20;95.60;;;;;;5031682;28;20464;-63
2023/11/10 12:45:42;;;;;;;2.77;1.10;;;22.20;95.70;;;;;;5033106;28;20546;-62
2023/11/10 12:48:14;;;;;;;1.43;1.13;;;22.20;95.70;;;;;;5022567;28;20481;-62